sensor_id;sensor_type;location;lat;lon;timestamp;P1;durP1;ratioP1;P2;durP2;ratioP2
28836;SDS011;50669;50.982;11.022;2023-03-05T00:01:08;2.42;;;1.80;;
28836;SDS011;50669;50.982;11.022;2023-03-05T00:03:35;2.35;;;1.70;;
28836;SDS011;50669;50.982;11.022;2023-03-05T00:06:01;2.78;;;1.83;;
28836;SDS011;50669;50.982;11.022;2023-03-05T00:08:29;2.47;;;1.55;;
28836;SDS011;50669;50.982;11.022;2023-03-05T00:10:58;1.70;;;1.40;;
28836;SDS011;50669;50.982;11.022;2023-03-05T00:13:26;2.40;;;1.77;;
28836;SDS011;50669;50.982;11.022;2023-03-05T00:15:52;2.33;;;1.73;;
28836;SDS011;50669;50.982;11.022;2023-03-05T00:18:18;2.95;;;1.90;;
28836;SDS011;50669;50.982;11.022;2023-03-05T00:20:47;2.28;;;1.63;;
28836;SDS011;50669;50.982;11.022;2023-03-05T00:23:16;2.58;;;1.60;;
28836;SDS011;50669;50.982;11.022;2023-03-05T00:25:42;1.95;;;1.58;;
28836;SDS011;50669;50.982;11.022;2023-03-05T00:28:08;2.42;;;1.70;;
28836;SDS011;50669;50.982;11.022;2023-03-05T00:30:38;2.33;;;1.90;;
28836;SDS011;50669;50.982;11.022;2023-03-05T00:33:10;2.25;;;1.70;;
28836;SDS011;50669;50.982;11.022;2023-03-05T00:35:40;2.30;;;1.80;;
28836;SDS011;50669;50.982;11.022;2023-03-05T00:38:06;2.60;;;1.65;;
28836;SDS011;50669;50.982;11.022;2023-03-05T00:40:38;1.85;;;1.40;;
28836;SDS011;50669;50.982;11.022;2023-03-05T00:43:08;2.90;;;1.80;;
28836;SDS011;50669;50.982;11.022;2023-03-05T00:45:36;2.78;;;1.73;;
28836;SDS011;50669;50.982;11.022;2023-03-05T00:48:04;3.35;;;2.05;;
28836;SDS011;50669;50.982;11.022;2023-03-05T00:50:32;1.67;;;1.48;;
28836;SDS011;50669;50.982;11.022;2023-03-05T00:52:57;2.95;;;1.98;;
28836;SDS011;50669;50.982;11.022;2023-03-05T00:55:23;3.72;;;1.90;;
28836;SDS011;50669;50.982;11.022;2023-03-05T00:57:49;2.30;;;1.75;;
28836;SDS011;50669;50.982;11.022;2023-03-05T01:00:15;2.50;;;1.70;;
28836;SDS011;50669;50.982;11.022;2023-03-05T01:02:44;3.50;;;2.08;;
28836;SDS011;50669;50.982;11.022;2023-03-05T01:05:10;2.90;;;1.95;;
28836;SDS011;50669;50.982;11.022;2023-03-05T01:07:37;2.08;;;1.65;;
28836;SDS011;50669;50.982;11.022;2023-03-05T01:10:06;2.95;;;1.75;;
28836;SDS011;50669;50.982;11.022;2023-03-05T01:12:33;2.45;;;1.50;;
28836;SDS011;50669;50.982;11.022;2023-03-05T01:14:58;1.92;;;1.45;;
28836;SDS011;50669;50.982;11.022;2023-03-05T01:17:24;2.60;;;1.52;;
28836;SDS011;50669;50.982;11.022;2023-03-05T01:19:50;2.70;;;1.70;;
28836;SDS011;50669;50.982;11.022;2023-03-05T01:22:15;2.20;;;1.48;;
28836;SDS011;50669;50.982;11.022;2023-03-05T01:24:41;2.45;;;1.70;;
28836;SDS011;50669;50.982;11.022;2023-03-05T01:27:09;2.42;;;1.40;;
28836;SDS011;50669;50.982;11.022;2023-03-05T01:29:37;2.22;;;1.73;;
28836;SDS011;50669;50.982;11.022;2023-03-05T01:32:03;2.63;;;1.73;;
28836;SDS011;50669;50.982;11.022;2023-03-05T01:34:29;2.55;;;1.88;;
28836;SDS011;50669;50.982;11.022;2023-03-05T01:36:55;2.30;;;1.73;;
28836;SDS011;50669;50.982;11.022;2023-03-05T01:39:21;2.50;;;1.75;;
28836;SDS011;50669;50.982;11.022;2023-03-05T01:41:46;2.30;;;1.38;;
28836;SDS011;50669;50.982;11.022;2023-03-05T01:44:22;2.47;;;1.70;;
28836;SDS011;50669;50.982;11.022;2023-03-05T01:46:50;2.65;;;1.85;;
28836;SDS011;50669;50.982;11.022;2023-03-05T01:51:51;2.72;;;1.80;;
28836;SDS011;50669;50.982;11.022;2023-03-05T01:54:34;2.35;;;1.52;;
28836;SDS011;50669;50.982;11.022;2023-03-05T01:57:08;2.72;;;1.67;;
28836;SDS011;50669;50.982;11.022;2023-03-05T01:59:38;2.47;;;1.70;;
28836;SDS011;50669;50.982;11.022;2023-03-05T02:02:06;2.17;;;1.67;;
28836;SDS011;50669;50.982;11.022;2023-03-05T02:04:35;2.90;;;1.83;;
28836;SDS011;50669;50.982;11.022;2023-03-05T02:07:07;2.63;;;1.70;;
28836;SDS011;50669;50.982;11.022;2023-03-05T02:09:36;2.55;;;1.63;;
28836;SDS011;50669;50.982;11.022;2023-03-05T02:12:06;2.53;;;1.55;;
28836;SDS011;50669;50.982;11.022;2023-03-05T02:14:35;2.08;;;1.40;;
28836;SDS011;50669;50.982;11.022;2023-03-05T02:17:02;1.75;;;1.30;;
28836;SDS011;50669;50.982;11.022;2023-03-05T02:19:27;1.95;;;1.27;;
28836;SDS011;50669;50.982;11.022;2023-03-05T02:21:53;2.25;;;1.83;;
28836;SDS011;50669;50.982;11.022;2023-03-05T02:24:35;2.20;;;1.63;;
28836;SDS011;50669;50.982;11.022;2023-03-05T02:27:03;2.58;;;1.50;;
28836;SDS011;50669;50.982;11.022;2023-03-05T02:29:31;2.35;;;1.50;;
28836;SDS011;50669;50.982;11.022;2023-03-05T02:31:58;2.17;;;1.52;;
28836;SDS011;50669;50.982;11.022;2023-03-05T02:34:26;2.47;;;1.58;;
28836;SDS011;50669;50.982;11.022;2023-03-05T02:36:54;2.97;;;1.75;;
28836;SDS011;50669;50.982;11.022;2023-03-05T02:39:20;2.53;;;1.60;;
28836;SDS011;50669;50.982;11.022;2023-03-05T02:41:46;2.03;;;1.52;;
28836;SDS011;50669;50.982;11.022;2023-03-05T02:44:11;2.53;;;1.52;;
28836;SDS011;50669;50.982;11.022;2023-03-05T02:46:37;1.88;;;1.20;;
28836;SDS011;50669;50.982;11.022;2023-03-05T02:49:05;1.38;;;1.17;;
28836;SDS011;50669;50.982;11.022;2023-03-05T02:51:33;2.00;;;1.40;;
28836;SDS011;50669;50.982;11.022;2023-03-05T02:53:59;2.08;;;1.40;;
28836;SDS011;50669;50.982;11.022;2023-03-05T02:56:25;2.63;;;1.70;;
28836;SDS011;50669;50.982;11.022;2023-03-05T02:58:50;1.98;;;1.40;;
28836;SDS011;50669;50.982;11.022;2023-03-05T03:01:16;2.67;;;1.70;;
28836;SDS011;50669;50.982;11.022;2023-03-05T03:03:44;1.98;;;1.23;;
28836;SDS011;50669;50.982;11.022;2023-03-05T03:06:09;1.50;;;1.38;;
28836;SDS011;50669;50.982;11.022;2023-03-05T03:08:38;1.83;;;1.52;;
28836;SDS011;50669;50.982;11.022;2023-03-05T03:11:08;1.95;;;1.38;;
28836;SDS011;50669;50.982;11.022;2023-03-05T03:13:37;1.73;;;1.27;;
28836;SDS011;50669;50.982;11.022;2023-03-05T03:16:08;2.47;;;1.25;;
28836;SDS011;50669;50.982;11.022;2023-03-05T03:18:36;1.83;;;1.20;;
28836;SDS011;50669;50.982;11.022;2023-03-05T03:21:03;1.98;;;1.10;;
28836;SDS011;50669;50.982;11.022;2023-03-05T03:23:33;1.77;;;1.38;;
28836;SDS011;50669;50.982;11.022;2023-03-05T03:25:58;2.42;;;1.45;;
28836;SDS011;50669;50.982;11.022;2023-03-05T03:28:24;2.03;;;1.30;;
28836;SDS011;50669;50.982;11.022;2023-03-05T03:30:50;2.30;;;1.60;;
28836;SDS011;50669;50.982;11.022;2023-03-05T03:33:16;2.30;;;1.40;;
28836;SDS011;50669;50.982;11.022;2023-03-05T03:35:44;1.83;;;1.23;;
28836;SDS011;50669;50.982;11.022;2023-03-05T03:38:13;3.20;;;1.60;;
28836;SDS011;50669;50.982;11.022;2023-03-05T03:40:41;2.00;;;1.48;;
28836;SDS011;50669;50.982;11.022;2023-03-05T03:43:09;2.40;;;1.40;;
28836;SDS011;50669;50.982;11.022;2023-03-05T03:45:42;1.95;;;1.30;;
28836;SDS011;50669;50.982;11.022;2023-03-05T03:48:09;1.80;;;1.30;;
28836;SDS011;50669;50.982;11.022;2023-03-05T03:50:37;2.13;;;1.35;;
28836;SDS011;50669;50.982;11.022;2023-03-05T03:53:07;2.13;;;1.73;;
28836;SDS011;50669;50.982;11.022;2023-03-05T03:55:34;1.90;;;1.30;;
28836;SDS011;50669;50.982;11.022;2023-03-05T03:57:59;2.17;;;1.60;;
28836;SDS011;50669;50.982;11.022;2023-03-05T04:00:32;2.83;;;1.27;;
28836;SDS011;50669;50.982;11.022;2023-03-05T04:03:00;2.15;;;1.50;;
28836;SDS011;50669;50.982;11.022;2023-03-05T04:05:26;2.00;;;1.20;;
28836;SDS011;50669;50.982;11.022;2023-03-05T04:07:51;2.10;;;1.27;;
28836;SDS011;50669;50.982;11.022;2023-03-05T04:10:21;2.42;;;1.30;;
28836;SDS011;50669;50.982;11.022;2023-03-05T04:12:47;2.40;;;1.27;;
28836;SDS011;50669;50.982;11.022;2023-03-05T04:15:13;1.98;;;1.42;;
28836;SDS011;50669;50.982;11.022;2023-03-05T04:17:39;1.58;;;1.15;;
28836;SDS011;50669;50.982;11.022;2023-03-05T04:20:07;1.98;;;1.30;;
28836;SDS011;50669;50.982;11.022;2023-03-05T04:22:34;1.50;;;1.05;;
28836;SDS011;50669;50.982;11.022;2023-03-05T04:25:03;1.85;;;1.30;;
28836;SDS011;50669;50.982;11.022;2023-03-05T04:27:32;2.15;;;1.38;;
28836;SDS011;50669;50.982;11.022;2023-03-05T04:29:58;2.00;;;1.20;;
28836;SDS011;50669;50.982;11.022;2023-03-05T04:32:24;2.45;;;1.38;;
28836;SDS011;50669;50.982;11.022;2023-03-05T04:34:50;2.05;;;1.20;;
28836;SDS011;50669;50.982;11.022;2023-03-05T04:37:16;1.63;;;1.20;;
28836;SDS011;50669;50.982;11.022;2023-03-05T04:39:42;1.65;;;1.13;;
28836;SDS011;50669;50.982;11.022;2023-03-05T04:42:07;2.00;;;1.40;;
28836;SDS011;50669;50.982;11.022;2023-03-05T04:44:34;1.90;;;1.30;;
28836;SDS011;50669;50.982;11.022;2023-03-05T04:47:00;2.30;;;1.65;;
28836;SDS011;50669;50.982;11.022;2023-03-05T04:49:26;1.75;;;1.27;;
28836;SDS011;50669;50.982;11.022;2023-03-05T04:51:52;1.45;;;1.30;;
28836;SDS011;50669;50.982;11.022;2023-03-05T04:54:17;1.77;;;1.30;;
28836;SDS011;50669;50.982;11.022;2023-03-05T04:56:43;2.40;;;1.48;;
28836;SDS011;50669;50.982;11.022;2023-03-05T04:59:08;2.22;;;1.35;;
28836;SDS011;50669;50.982;11.022;2023-03-05T05:01:34;1.45;;;1.02;;
28836;SDS011;50669;50.982;11.022;2023-03-05T05:04:02;2.00;;;1.10;;
28836;SDS011;50669;50.982;11.022;2023-03-05T05:06:30;2.10;;;1.52;;
28836;SDS011;50669;50.982;11.022;2023-03-05T05:09:00;1.80;;;1.20;;
28836;SDS011;50669;50.982;11.022;2023-03-05T05:11:28;2.17;;;1.55;;
28836;SDS011;50669;50.982;11.022;2023-03-05T05:13:54;1.83;;;1.45;;
28836;SDS011;50669;50.982;11.022;2023-03-05T05:16:22;1.83;;;1.40;;
28836;SDS011;50669;50.982;11.022;2023-03-05T05:18:52;1.92;;;1.20;;
28836;SDS011;50669;50.982;11.022;2023-03-05T05:21:17;1.55;;;1.10;;
28836;SDS011;50669;50.982;11.022;2023-03-05T05:23:44;2.08;;;1.23;;
28836;SDS011;50669;50.982;11.022;2023-03-05T05:26:10;2.13;;;1.42;;
28836;SDS011;50669;50.982;11.022;2023-03-05T05:28:39;2.45;;;1.33;;
28836;SDS011;50669;50.982;11.022;2023-03-05T05:31:09;2.60;;;1.33;;
28836;SDS011;50669;50.982;11.022;2023-03-05T05:33:39;1.90;;;1.25;;
28836;SDS011;50669;50.982;11.022;2023-03-05T05:36:08;2.13;;;1.25;;
28836;SDS011;50669;50.982;11.022;2023-03-05T05:38:36;2.08;;;1.23;;
28836;SDS011;50669;50.982;11.022;2023-03-05T05:43:33;1.60;;;1.20;;
28836;SDS011;50669;50.982;11.022;2023-03-05T05:46:00;1.83;;;1.00;;
28836;SDS011;50669;50.982;11.022;2023-03-05T05:48:30;1.33;;;1.00;;
28836;SDS011;50669;50.982;11.022;2023-03-05T05:51:03;1.73;;;1.17;;
28836;SDS011;50669;50.982;11.022;2023-03-05T05:53:33;2.30;;;1.30;;
28836;SDS011;50669;50.982;11.022;2023-03-05T05:55:59;2.03;;;1.38;;
28836;SDS011;50669;50.982;11.022;2023-03-05T05:58:25;1.73;;;1.30;;
28836;SDS011;50669;50.982;11.022;2023-03-05T06:00:51;1.67;;;1.15;;
28836;SDS011;50669;50.982;11.022;2023-03-05T06:03:16;1.27;;;1.00;;
28836;SDS011;50669;50.982;11.022;2023-03-05T06:05:42;1.63;;;1.05;;
28836;SDS011;50669;50.982;11.022;2023-03-05T06:08:08;2.13;;;1.10;;
28836;SDS011;50669;50.982;11.022;2023-03-05T06:10:34;1.95;;;1.60;;
28836;SDS011;50669;50.982;11.022;2023-03-05T06:13:00;2.10;;;1.00;;
28836;SDS011;50669;50.982;11.022;2023-03-05T06:15:26;1.60;;;1.13;;
28836;SDS011;50669;50.982;11.022;2023-03-05T06:17:51;2.00;;;1.27;;
28836;SDS011;50669;50.982;11.022;2023-03-05T06:20:18;2.47;;;1.23;;
28836;SDS011;50669;50.982;11.022;2023-03-05T06:22:45;1.88;;;1.25;;
28836;SDS011;50669;50.982;11.022;2023-03-05T06:25:10;1.73;;;1.33;;
28836;SDS011;50669;50.982;11.022;2023-03-05T06:27:38;1.92;;;1.13;;
28836;SDS011;50669;50.982;11.022;2023-03-05T06:30:05;1.42;;;1.05;;
28836;SDS011;50669;50.982;11.022;2023-03-05T06:32:31;1.63;;;1.02;;
28836;SDS011;50669;50.982;11.022;2023-03-05T06:34:57;1.70;;;0.93;;
28836;SDS011;50669;50.982;11.022;2023-03-05T06:37:27;1.92;;;1.20;;
28836;SDS011;50669;50.982;11.022;2023-03-05T06:39:53;2.38;;;1.13;;
28836;SDS011;50669;50.982;11.022;2023-03-05T06:42:18;2.05;;;1.20;;
28836;SDS011;50669;50.982;11.022;2023-03-05T06:44:44;1.70;;;1.23;;
28836;SDS011;50669;50.982;11.022;2023-03-05T06:47:12;1.98;;;0.95;;
28836;SDS011;50669;50.982;11.022;2023-03-05T06:49:38;1.63;;;1.20;;
28836;SDS011;50669;50.982;11.022;2023-03-05T06:52:06;1.73;;;1.25;;
28836;SDS011;50669;50.982;11.022;2023-03-05T06:54:36;1.75;;;1.10;;
28836;SDS011;50669;50.982;11.022;2023-03-05T06:57:04;2.13;;;1.20;;
28836;SDS011;50669;50.982;11.022;2023-03-05T06:59:30;1.73;;;1.02;;
28836;SDS011;50669;50.982;11.022;2023-03-05T07:01:58;1.30;;;0.90;;
28836;SDS011;50669;50.982;11.022;2023-03-05T07:04:26;0.80;;;0.80;;
28836;SDS011;50669;50.982;11.022;2023-03-05T07:06:51;1.55;;;1.17;;
28836;SDS011;50669;50.982;11.022;2023-03-05T07:09:17;1.45;;;1.00;;
28836;SDS011;50669;50.982;11.022;2023-03-05T07:11:45;1.65;;;1.10;;
28836;SDS011;50669;50.982;11.022;2023-03-05T07:14:11;1.88;;;1.13;;
28836;SDS011;50669;50.982;11.022;2023-03-05T07:16:36;1.05;;;0.90;;
28836;SDS011;50669;50.982;11.022;2023-03-05T07:19:04;1.63;;;1.20;;
28836;SDS011;50669;50.982;11.022;2023-03-05T07:21:34;1.33;;;1.00;;
28836;SDS011;50669;50.982;11.022;2023-03-05T07:24:01;1.33;;;1.00;;
28836;SDS011;50669;50.982;11.022;2023-03-05T07:26:28;1.55;;;1.05;;
28836;SDS011;50669;50.982;11.022;2023-03-05T07:28:54;1.70;;;1.30;;
28836;SDS011;50669;50.982;11.022;2023-03-05T07:31:24;1.75;;;1.00;;
28836;SDS011;50669;50.982;11.022;2023-03-05T07:33:56;1.23;;;0.90;;
28836;SDS011;50669;50.982;11.022;2023-03-05T07:36:22;1.17;;;0.90;;
28836;SDS011;50669;50.982;11.022;2023-03-05T07:38:48;1.38;;;1.00;;
28836;SDS011;50669;50.982;11.022;2023-03-05T07:41:14;2.03;;;1.15;;
28836;SDS011;50669;50.982;11.022;2023-03-05T07:43:49;1.05;;;0.90;;
28836;SDS011;50669;50.982;11.022;2023-03-05T07:46:17;1.48;;;0.95;;
28836;SDS011;50669;50.982;11.022;2023-03-05T07:48:44;1.38;;;0.88;;
28836;SDS011;50669;50.982;11.022;2023-03-05T07:51:15;1.67;;;1.15;;
28836;SDS011;50669;50.982;11.022;2023-03-05T07:53:43;1.80;;;1.23;;
28836;SDS011;50669;50.982;11.022;2023-03-05T07:56:09;1.83;;;1.00;;
28836;SDS011;50669;50.982;11.022;2023-03-05T07:58:35;1.50;;;1.10;;
28836;SDS011;50669;50.982;11.022;2023-03-05T08:01:01;1.63;;;1.20;;
28836;SDS011;50669;50.982;11.022;2023-03-05T08:03:28;1.40;;;0.90;;
28836;SDS011;50669;50.982;11.022;2023-03-05T08:05:53;2.00;;;1.20;;
28836;SDS011;50669;50.982;11.022;2023-03-05T08:08:19;1.42;;;1.00;;
28836;SDS011;50669;50.982;11.022;2023-03-05T08:10:45;1.73;;;1.10;;
28836;SDS011;50669;50.982;11.022;2023-03-05T08:13:15;1.85;;;1.27;;
28836;SDS011;50669;50.982;11.022;2023-03-05T08:15:41;1.20;;;0.80;;
28836;SDS011;50669;50.982;11.022;2023-03-05T08:18:12;1.20;;;1.00;;
28836;SDS011;50669;50.982;11.022;2023-03-05T08:20:39;1.73;;;0.90;;
28836;SDS011;50669;50.982;11.022;2023-03-05T08:23:07;1.88;;;1.10;;
28836;SDS011;50669;50.982;11.022;2023-03-05T08:25:33;1.27;;;0.98;;
28836;SDS011;50669;50.982;11.022;2023-03-05T08:27:58;1.77;;;0.90;;
28836;SDS011;50669;50.982;11.022;2023-03-05T08:30:29;1.50;;;1.10;;
28836;SDS011;50669;50.982;11.022;2023-03-05T08:32:56;1.90;;;0.90;;
28836;SDS011;50669;50.982;11.022;2023-03-05T08:35:22;1.55;;;1.08;;
28836;SDS011;50669;50.982;11.022;2023-03-05T08:37:48;1.35;;;0.90;;
28836;SDS011;50669;50.982;11.022;2023-03-05T08:40:14;1.30;;;1.02;;
28836;SDS011;50669;50.982;11.022;2023-03-05T08:42:42;1.60;;;1.00;;
28836;SDS011;50669;50.982;11.022;2023-03-05T08:45:10;1.27;;;1.00;;
28836;SDS011;50669;50.982;11.022;2023-03-05T08:47:36;1.40;;;0.98;;
28836;SDS011;50669;50.982;11.022;2023-03-05T08:50:02;1.40;;;1.02;;
28836;SDS011;50669;50.982;11.022;2023-03-05T08:52:28;1.20;;;1.00;;
28836;SDS011;50669;50.982;11.022;2023-03-05T08:54:54;1.48;;;0.77;;
28836;SDS011;50669;50.982;11.022;2023-03-05T08:57:22;0.93;;;0.77;;
28836;SDS011;50669;50.982;11.022;2023-03-05T08:59:50;1.50;;;0.90;;
28836;SDS011;50669;50.982;11.022;2023-03-05T09:02:17;1.90;;;1.13;;
28836;SDS011;50669;50.982;11.022;2023-03-05T09:04:43;1.23;;;0.90;;
28836;SDS011;50669;50.982;11.022;2023-03-05T09:07:09;0.90;;;0.68;;
28836;SDS011;50669;50.982;11.022;2023-03-05T09:09:35;1.73;;;0.75;;
28836;SDS011;50669;50.982;11.022;2023-03-05T09:12:01;2.17;;;1.08;;
28836;SDS011;50669;50.982;11.022;2023-03-05T09:14:27;1.25;;;0.93;;
28836;SDS011;50669;50.982;11.022;2023-03-05T09:16:53;1.27;;;0.82;;
28836;SDS011;50669;50.982;11.022;2023-03-05T09:19:20;1.30;;;0.90;;
28836;SDS011;50669;50.982;11.022;2023-03-05T09:21:45;1.83;;;1.00;;
28836;SDS011;50669;50.982;11.022;2023-03-05T09:24:14;1.42;;;0.90;;
28836;SDS011;50669;50.982;11.022;2023-03-05T09:26:39;1.80;;;1.00;;
28836;SDS011;50669;50.982;11.022;2023-03-05T09:29:06;1.58;;;1.20;;
28836;SDS011;50669;50.982;11.022;2023-03-05T09:31:33;1.52;;;1.10;;
28836;SDS011;50669;50.982;11.022;2023-03-05T09:33:59;1.55;;;1.15;;
28836;SDS011;50669;50.982;11.022;2023-03-05T09:36:28;1.23;;;1.00;;
28836;SDS011;50669;50.982;11.022;2023-03-05T09:38:55;1.50;;;1.02;;
28836;SDS011;50669;50.982;11.022;2023-03-05T09:45:43;1.45;;;0.80;;
28836;SDS011;50669;50.982;11.022;2023-03-05T09:47:53;1.40;;;0.90;;
28836;SDS011;50669;50.982;11.022;2023-03-05T09:55:50;1.70;;;1.00;;
28836;SDS011;50669;50.982;11.022;2023-03-05T09:58:21;1.40;;;1.02;;
28836;SDS011;50669;50.982;11.022;2023-03-05T10:01:07;1.48;;;0.95;;
28836;SDS011;50669;50.982;11.022;2023-03-05T10:28:07;1.35;;;0.88;;
28836;SDS011;50669;50.982;11.022;2023-03-05T10:31:00;1.30;;;0.73;;
28836;SDS011;50669;50.982;11.022;2023-03-05T10:33:51;1.10;;;0.70;;
28836;SDS011;50669;50.982;11.022;2023-03-05T10:44:57;1.20;;;0.80;;
28836;SDS011;50669;50.982;11.022;2023-03-05T10:50:26;1.48;;;0.90;;
28836;SDS011;50669;50.982;11.022;2023-03-05T10:55:35;1.23;;;0.85;;
28836;SDS011;50669;50.982;11.022;2023-03-05T10:58:12;1.08;;;0.75;;
28836;SDS011;50669;50.982;11.022;2023-03-05T11:00:48;1.73;;;1.13;;
28836;SDS011;50669;50.982;11.022;2023-03-05T11:06:26;1.45;;;0.73;;
28836;SDS011;50669;50.982;11.022;2023-03-05T11:15:06;1.30;;;0.80;;
28836;SDS011;50669;50.982;11.022;2023-03-05T11:25:54;1.00;;;0.70;;
28836;SDS011;50669;50.982;11.022;2023-03-05T11:29:01;1.77;;;0.98;;
28836;SDS011;50669;50.982;11.022;2023-03-05T11:31:30;1.30;;;0.77;;
28836;SDS011;50669;50.982;11.022;2023-03-05T11:37:01;2.20;;;0.90;;
28836;SDS011;50669;50.982;11.022;2023-03-05T11:39:28;1.05;;;0.68;;
28836;SDS011;50669;50.982;11.022;2023-03-05T11:42:01;1.50;;;0.90;;
28836;SDS011;50669;50.982;11.022;2023-03-05T11:44:50;1.10;;;0.75;;
28836;SDS011;50669;50.982;11.022;2023-03-05T11:50:04;1.40;;;0.90;;
28836;SDS011;50669;50.982;11.022;2023-03-05T11:52:47;1.38;;;0.82;;
28836;SDS011;50669;50.982;11.022;2023-03-05T12:00:33;1.05;;;0.63;;
28836;SDS011;50669;50.982;11.022;2023-03-05T12:03:03;1.35;;;0.90;;
28836;SDS011;50669;50.982;11.022;2023-03-05T12:05:35;1.27;;;0.85;;
28836;SDS011;50669;50.982;11.022;2023-03-05T12:08:05;1.05;;;0.80;;
28836;SDS011;50669;50.982;11.022;2023-03-05T12:10:39;1.73;;;1.08;;
28836;SDS011;50669;50.982;11.022;2023-03-05T12:13:13;1.23;;;0.90;;
28836;SDS011;50669;50.982;11.022;2023-03-05T12:21:50;1.50;;;0.98;;
28836;SDS011;50669;50.982;11.022;2023-03-05T12:42:52;1.25;;;0.90;;
28836;SDS011;50669;50.982;11.022;2023-03-05T12:45:34;1.60;;;0.93;;
28836;SDS011;50669;50.982;11.022;2023-03-05T12:50:45;1.90;;;1.00;;
28836;SDS011;50669;50.982;11.022;2023-03-05T12:53:16;2.00;;;0.90;;
28836;SDS011;50669;50.982;11.022;2023-03-05T13:03:42;1.35;;;1.02;;
28836;SDS011;50669;50.982;11.022;2023-03-05T13:06:28;1.30;;;1.00;;
28836;SDS011;50669;50.982;11.022;2023-03-05T13:09:01;2.60;;;1.30;;
28836;SDS011;50669;50.982;11.022;2023-03-05T13:11:31;1.65;;;0.88;;
28836;SDS011;50669;50.982;11.022;2023-03-05T13:14:02;1.83;;;1.25;;
28836;SDS011;50669;50.982;11.022;2023-03-05T13:16:28;1.50;;;0.93;;
28836;SDS011;50669;50.982;11.022;2023-03-05T13:19:00;1.67;;;0.90;;
28836;SDS011;50669;50.982;11.022;2023-03-05T13:21:30;1.52;;;1.10;;
28836;SDS011;50669;50.982;11.022;2023-03-05T13:23:58;1.48;;;1.08;;
28836;SDS011;50669;50.982;11.022;2023-03-05T13:26:26;1.70;;;1.23;;
28836;SDS011;50669;50.982;11.022;2023-03-05T13:31:32;1.20;;;1.00;;
28836;SDS011;50669;50.982;11.022;2023-03-05T13:34:10;1.40;;;1.20;;
28836;SDS011;50669;50.982;11.022;2023-03-05T13:36:47;1.75;;;1.00;;
28836;SDS011;50669;50.982;11.022;2023-03-05T13:39:21;1.60;;;1.27;;
28836;SDS011;50669;50.982;11.022;2023-03-05T13:42:23;1.15;;;0.95;;
28836;SDS011;50669;50.982;11.022;2023-03-05T13:44:51;1.33;;;1.05;;
28836;SDS011;50669;50.982;11.022;2023-03-05T13:47:28;1.63;;;1.00;;
28836;SDS011;50669;50.982;11.022;2023-03-05T13:50:03;1.90;;;1.20;;
28836;SDS011;50669;50.982;11.022;2023-03-05T13:52:34;2.05;;;1.20;;
28836;SDS011;50669;50.982;11.022;2023-03-05T13:55:04;1.48;;;1.10;;
28836;SDS011;50669;50.982;11.022;2023-03-05T13:57:44;1.85;;;1.08;;
28836;SDS011;50669;50.982;11.022;2023-03-05T14:00:31;2.00;;;1.30;;
28836;SDS011;50669;50.982;11.022;2023-03-05T14:03:07;2.28;;;1.30;;
28836;SDS011;50669;50.982;11.022;2023-03-05T14:05:51;2.17;;;1.40;;
28836;SDS011;50669;50.982;11.022;2023-03-05T14:08:27;2.13;;;1.38;;
28836;SDS011;50669;50.982;11.022;2023-03-05T14:10:53;1.73;;;1.10;;
28836;SDS011;50669;50.982;11.022;2023-03-05T14:13:24;3.85;;;1.50;;
28836;SDS011;50669;50.982;11.022;2023-03-05T14:16:12;1.70;;;1.45;;
28836;SDS011;50669;50.982;11.022;2023-03-05T14:18:54;2.00;;;1.33;;
28836;SDS011;50669;50.982;11.022;2023-03-05T14:21:23;1.63;;;1.13;;
28836;SDS011;50669;50.982;11.022;2023-03-05T14:23:52;1.70;;;1.20;;
28836;SDS011;50669;50.982;11.022;2023-03-05T14:26:26;1.77;;;1.40;;
28836;SDS011;50669;50.982;11.022;2023-03-05T14:28:53;1.90;;;1.20;;
28836;SDS011;50669;50.982;11.022;2023-03-05T14:31:20;2.70;;;1.83;;
28836;SDS011;50669;50.982;11.022;2023-03-05T14:33:49;2.17;;;1.40;;
28836;SDS011;50669;50.982;11.022;2023-03-05T14:36:20;1.67;;;1.05;;
28836;SDS011;50669;50.982;11.022;2023-03-05T14:38:50;2.78;;;1.40;;
28836;SDS011;50669;50.982;11.022;2023-03-05T14:41:26;2.28;;;1.60;;
28836;SDS011;50669;50.982;11.022;2023-03-05T14:44:12;1.95;;;1.30;;
28836;SDS011;50669;50.982;11.022;2023-03-05T14:46:40;2.40;;;1.50;;
28836;SDS011;50669;50.982;11.022;2023-03-05T14:49:07;2.45;;;1.13;;
28836;SDS011;50669;50.982;11.022;2023-03-05T14:51:34;1.88;;;1.23;;
28836;SDS011;50669;50.982;11.022;2023-03-05T14:54:03;1.65;;;1.30;;
28836;SDS011;50669;50.982;11.022;2023-03-05T14:56:29;1.70;;;1.25;;
28836;SDS011;50669;50.982;11.022;2023-03-05T14:58:55;2.67;;;1.63;;
28836;SDS011;50669;50.982;11.022;2023-03-05T15:01:24;2.88;;;1.75;;
28836;SDS011;50669;50.982;11.022;2023-03-05T15:03:50;2.03;;;1.40;;
28836;SDS011;50669;50.982;11.022;2023-03-05T15:06:17;2.55;;;1.33;;
28836;SDS011;50669;50.982;11.022;2023-03-05T15:08:46;2.28;;;1.60;;
28836;SDS011;50669;50.982;11.022;2023-03-05T15:11:13;2.00;;;1.25;;
28836;SDS011;50669;50.982;11.022;2023-03-05T15:13:41;2.35;;;1.52;;
28836;SDS011;50669;50.982;11.022;2023-03-05T15:16:10;2.47;;;1.63;;
28836;SDS011;50669;50.982;11.022;2023-03-05T15:18:39;2.05;;;1.42;;
28836;SDS011;50669;50.982;11.022;2023-03-05T15:21:05;1.48;;;1.20;;
28836;SDS011;50669;50.982;11.022;2023-03-05T15:23:32;2.03;;;1.45;;
28836;SDS011;50669;50.982;11.022;2023-03-05T15:26:03;2.00;;;1.50;;
28836;SDS011;50669;50.982;11.022;2023-03-05T15:28:35;1.83;;;1.50;;
28836;SDS011;50669;50.982;11.022;2023-03-05T15:31:04;1.92;;;1.42;;
28836;SDS011;50669;50.982;11.022;2023-03-05T15:33:30;2.45;;;1.58;;
28836;SDS011;50669;50.982;11.022;2023-03-05T15:36:01;1.85;;;1.40;;
28836;SDS011;50669;50.982;11.022;2023-03-05T15:38:27;2.40;;;1.67;;
28836;SDS011;50669;50.982;11.022;2023-03-05T15:40:55;2.40;;;1.50;;
28836;SDS011;50669;50.982;11.022;2023-03-05T15:43:23;1.90;;;1.40;;
28836;SDS011;50669;50.982;11.022;2023-03-05T15:45:49;2.35;;;1.40;;
28836;SDS011;50669;50.982;11.022;2023-03-05T15:48:15;2.13;;;1.50;;
28836;SDS011;50669;50.982;11.022;2023-03-05T15:50:41;2.00;;;1.40;;
28836;SDS011;50669;50.982;11.022;2023-03-05T15:53:10;2.38;;;1.60;;
28836;SDS011;50669;50.982;11.022;2023-03-05T15:55:39;2.70;;;1.60;;
28836;SDS011;50669;50.982;11.022;2023-03-05T15:58:11;2.97;;;1.73;;
28836;SDS011;50669;50.982;11.022;2023-03-05T16:00:39;1.85;;;1.40;;
28836;SDS011;50669;50.982;11.022;2023-03-05T16:03:04;2.20;;;1.42;;
28836;SDS011;50669;50.982;11.022;2023-03-05T16:05:31;2.20;;;1.40;;
28836;SDS011;50669;50.982;11.022;2023-03-05T16:07:58;2.00;;;1.48;;
28836;SDS011;50669;50.982;11.022;2023-03-05T16:10:25;2.05;;;1.60;;
28836;SDS011;50669;50.982;11.022;2023-03-05T16:12:59;2.28;;;1.45;;
28836;SDS011;50669;50.982;11.022;2023-03-05T16:15:28;2.15;;;1.50;;
28836;SDS011;50669;50.982;11.022;2023-03-05T16:18:00;2.45;;;1.48;;
28836;SDS011;50669;50.982;11.022;2023-03-05T16:20:32;2.22;;;1.65;;
28836;SDS011;50669;50.982;11.022;2023-03-05T16:23:00;2.40;;;1.70;;
28836;SDS011;50669;50.982;11.022;2023-03-05T16:25:28;2.38;;;1.52;;
28836;SDS011;50669;50.982;11.022;2023-03-05T16:27:56;2.00;;;1.55;;
28836;SDS011;50669;50.982;11.022;2023-03-05T16:30:22;1.70;;;1.38;;
28836;SDS011;50669;50.982;11.022;2023-03-05T16:32:50;2.42;;;1.70;;
28836;SDS011;50669;50.982;11.022;2023-03-05T16:35:15;2.38;;;1.50;;
28836;SDS011;50669;50.982;11.022;2023-03-05T16:37:44;2.45;;;1.60;;
28836;SDS011;50669;50.982;11.022;2023-03-05T16:40:10;1.80;;;1.30;;
28836;SDS011;50669;50.982;11.022;2023-03-05T16:42:39;2.47;;;1.52;;